sensor_id;sensor_type;location;lat;lon;timestamp;P1;durP1;ratioP1;P2;durP2;ratioP2
75169;SDS011;63749;49.186;9.222;2023-05-07T00:00:08;7.28;;;4.63;;
75169;SDS011;63749;49.186;9.222;2023-05-07T00:02:34;8.20;;;4.73;;
75169;SDS011;63749;49.186;9.222;2023-05-07T00:04:59;6.97;;;5.00;;
75169;SDS011;63749;49.186;9.222;2023-05-07T00:07:25;8.10;;;5.33;;
75169;SDS011;63749;49.186;9.222;2023-05-07T00:09:50;9.10;;;4.97;;
75169;SDS011;63749;49.186;9.222;2023-05-07T00:12:15;6.97;;;4.73;;
75169;SDS011;63749;49.186;9.222;2023-05-07T00:14:41;6.20;;;4.80;;
75169;SDS011;63749;49.186;9.222;2023-05-07T00:17:06;9.23;;;5.30;;
75169;SDS011;63749;49.186;9.222;2023-05-07T00:19:32;9.17;;;5.03;;
75169;SDS011;63749;49.186;9.222;2023-05-07T00:24:22;10.10;;;5.00;;
75169;SDS011;63749;49.186;9.222;2023-05-07T00:26:48;6.80;;;5.18;;
75169;SDS011;63749;49.186;9.222;2023-05-07T00:29:13;7.60;;;5.00;;
75169;SDS011;63749;49.186;9.222;2023-05-07T00:31:38;8.73;;;5.30;;
75169;SDS011;63749;49.186;9.222;2023-05-07T00:34:04;7.60;;;5.20;;
75169;SDS011;63749;49.186;9.222;2023-05-07T00:36:29;8.10;;;5.17;;
75169;SDS011;63749;49.186;9.222;2023-05-07T00:38:56;8.75;;;5.60;;
75169;SDS011;63749;49.186;9.222;2023-05-07T00:41:23;8.43;;;5.30;;
75169;SDS011;63749;49.186;9.222;2023-05-07T00:43:49;7.93;;;5.43;;
75169;SDS011;63749;49.186;9.222;2023-05-07T00:46:16;9.27;;;6.00;;
75169;SDS011;63749;49.186;9.222;2023-05-07T00:48:42;9.30;;;5.68;;
75169;SDS011;63749;49.186;9.222;2023-05-07T00:51:07;7.70;;;5.87;;
75169;SDS011;63749;49.186;9.222;2023-05-07T00:53:36;7.38;;;5.47;;
75169;SDS011;63749;49.186;9.222;2023-05-07T00:56:01;10.43;;;5.72;;
75169;SDS011;63749;49.186;9.222;2023-05-07T00:58:27;8.50;;;5.50;;
75169;SDS011;63749;49.186;9.222;2023-05-07T01:00:52;9.07;;;5.57;;
75169;SDS011;63749;49.186;9.222;2023-05-07T01:03:18;9.07;;;5.77;;
75169;SDS011;63749;49.186;9.222;2023-05-07T01:05:43;9.38;;;5.30;;
75169;SDS011;63749;49.186;9.222;2023-05-07T01:08:11;7.57;;;5.53;;
75169;SDS011;63749;49.186;9.222;2023-05-07T01:10:37;8.03;;;5.70;;
75169;SDS011;63749;49.186;9.222;2023-05-07T01:13:07;7.28;;;5.63;;
75169;SDS011;63749;49.186;9.222;2023-05-07T01:15:37;10.02;;;5.78;;
75169;SDS011;63749;49.186;9.222;2023-05-07T01:18:03;11.35;;;6.22;;
75169;SDS011;63749;49.186;9.222;2023-05-07T01:20:29;7.00;;;5.50;;
75169;SDS011;63749;49.186;9.222;2023-05-07T01:22:55;9.25;;;5.78;;
75169;SDS011;63749;49.186;9.222;2023-05-07T01:25:22;8.65;;;6.40;;
75169;SDS011;63749;49.186;9.222;2023-05-07T01:27:48;10.20;;;6.22;;
75169;SDS011;63749;49.186;9.222;2023-05-07T01:30:13;9.67;;;6.20;;
75169;SDS011;63749;49.186;9.222;2023-05-07T01:32:51;9.30;;;6.00;;
75169;SDS011;63749;49.186;9.222;2023-05-07T01:35:22;9.07;;;5.90;;
75169;SDS011;63749;49.186;9.222;2023-05-07T01:37:55;9.15;;;5.65;;
75169;SDS011;63749;49.186;9.222;2023-05-07T01:40:21;7.78;;;5.35;;
75169;SDS011;63749;49.186;9.222;2023-05-07T01:42:47;7.80;;;5.53;;
75169;SDS011;63749;49.186;9.222;2023-05-07T01:45:15;7.10;;;5.47;;
75169;SDS011;63749;49.186;9.222;2023-05-07T01:47:41;8.05;;;5.40;;
75169;SDS011;63749;49.186;9.222;2023-05-07T01:50:07;7.47;;;5.57;;
75169;SDS011;63749;49.186;9.222;2023-05-07T01:52:35;10.90;;;6.15;;
75169;SDS011;63749;49.186;9.222;2023-05-07T01:55:02;8.10;;;6.05;;
75169;SDS011;63749;49.186;9.222;2023-05-07T01:57:28;8.23;;;5.93;;
75169;SDS011;63749;49.186;9.222;2023-05-07T01:59:54;7.57;;;5.97;;
75169;SDS011;63749;49.186;9.222;2023-05-07T02:02:19;8.07;;;5.67;;
75169;SDS011;63749;49.186;9.222;2023-05-07T02:04:44;7.57;;;5.60;;
75169;SDS011;63749;49.186;9.222;2023-05-07T02:07:10;8.85;;;5.70;;
75169;SDS011;63749;49.186;9.222;2023-05-07T02:09:35;8.47;;;5.70;;
75169;SDS011;63749;49.186;9.222;2023-05-07T02:12:00;8.50;;;6.13;;
75169;SDS011;63749;49.186;9.222;2023-05-07T02:14:26;8.57;;;5.87;;
75169;SDS011;63749;49.186;9.222;2023-05-07T02:16:51;7.77;;;6.00;;
75169;SDS011;63749;49.186;9.222;2023-05-07T02:19:17;9.00;;;5.90;;
75169;SDS011;63749;49.186;9.222;2023-05-07T02:21:43;8.07;;;5.60;;
75169;SDS011;63749;49.186;9.222;2023-05-07T02:24:08;9.77;;;5.85;;
75169;SDS011;63749;49.186;9.222;2023-05-07T02:26:34;8.57;;;5.70;;
75169;SDS011;63749;49.186;9.222;2023-05-07T02:28:59;8.23;;;5.90;;
75169;SDS011;63749;49.186;9.222;2023-05-07T02:31:24;8.50;;;5.70;;
75169;SDS011;63749;49.186;9.222;2023-05-07T02:33:50;9.57;;;6.30;;
75169;SDS011;63749;49.186;9.222;2023-05-07T02:36:15;8.67;;;5.80;;
75169;SDS011;63749;49.186;9.222;2023-05-07T02:38:40;8.80;;;5.93;;
75169;SDS011;63749;49.186;9.222;2023-05-07T02:41:06;8.40;;;5.77;;
75169;SDS011;63749;49.186;9.222;2023-05-07T02:43:31;7.57;;;5.90;;
75169;SDS011;63749;49.186;9.222;2023-05-07T02:46:03;8.90;;;6.30;;
75169;SDS011;63749;49.186;9.222;2023-05-07T02:48:30;8.87;;;5.93;;
75169;SDS011;63749;49.186;9.222;2023-05-07T02:50:55;9.02;;;5.90;;
75169;SDS011;63749;49.186;9.222;2023-05-07T02:53:21;8.00;;;6.00;;
75169;SDS011;63749;49.186;9.222;2023-05-07T02:55:46;11.00;;;5.70;;
75169;SDS011;63749;49.186;9.222;2023-05-07T02:58:12;8.60;;;5.93;;
75169;SDS011;63749;49.186;9.222;2023-05-07T03:00:37;8.10;;;6.20;;
75169;SDS011;63749;49.186;9.222;2023-05-07T03:03:02;9.23;;;5.97;;
75169;SDS011;63749;49.186;9.222;2023-05-07T03:05:28;10.03;;;6.60;;
75169;SDS011;63749;49.186;9.222;2023-05-07T03:07:53;8.93;;;6.37;;
75169;SDS011;63749;49.186;9.222;2023-05-07T03:10:18;11.93;;;6.37;;
75169;SDS011;63749;49.186;9.222;2023-05-07T03:12:44;10.13;;;6.40;;
75169;SDS011;63749;49.186;9.222;2023-05-07T03:15:09;10.13;;;6.30;;
75169;SDS011;63749;49.186;9.222;2023-05-07T03:17:37;8.20;;;6.30;;
75169;SDS011;63749;49.186;9.222;2023-05-07T03:20:03;9.85;;;6.70;;
75169;SDS011;63749;49.186;9.222;2023-05-07T03:22:28;13.90;;;6.90;;
75169;SDS011;63749;49.186;9.222;2023-05-07T03:24:54;10.35;;;6.70;;
75169;SDS011;63749;49.186;9.222;2023-05-07T03:27:19;9.07;;;6.60;;
75169;SDS011;63749;49.186;9.222;2023-05-07T03:29:44;9.07;;;6.10;;
75169;SDS011;63749;49.186;9.222;2023-05-07T03:32:10;16.73;;;6.67;;
75169;SDS011;63749;49.186;9.222;2023-05-07T03:34:35;9.97;;;6.63;;
75169;SDS011;63749;49.186;9.222;2023-05-07T03:37:00;8.50;;;6.70;;
75169;SDS011;63749;49.186;9.222;2023-05-07T03:39:26;9.97;;;6.70;;
75169;SDS011;63749;49.186;9.222;2023-05-07T03:41:51;8.90;;;6.38;;
75169;SDS011;63749;49.186;9.222;2023-05-07T03:44:16;9.70;;;6.50;;
75169;SDS011;63749;49.186;9.222;2023-05-07T03:46:41;9.10;;;6.50;;
75169;SDS011;63749;49.186;9.222;2023-05-07T03:49:07;10.53;;;6.30;;
75169;SDS011;63749;49.186;9.222;2023-05-07T03:51:33;9.13;;;6.25;;
75169;SDS011;63749;49.186;9.222;2023-05-07T03:53:58;9.50;;;5.83;;
75169;SDS011;63749;49.186;9.222;2023-05-07T03:56:23;10.20;;;6.30;;
75169;SDS011;63749;49.186;9.222;2023-05-07T03:58:51;9.68;;;6.13;;
75169;SDS011;63749;49.186;9.222;2023-05-07T04:01:17;8.77;;;5.97;;
75169;SDS011;63749;49.186;9.222;2023-05-07T04:03:42;8.33;;;6.13;;
75169;SDS011;63749;49.186;9.222;2023-05-07T04:06:07;8.43;;;5.90;;
75169;SDS011;63749;49.186;9.222;2023-05-07T04:08:33;8.37;;;5.90;;
75169;SDS011;63749;49.186;9.222;2023-05-07T04:10:58;9.30;;;6.20;;
75169;SDS011;63749;49.186;9.222;2023-05-07T04:13:24;9.43;;;6.03;;
75169;SDS011;63749;49.186;9.222;2023-05-07T04:15:50;10.13;;;6.28;;
75169;SDS011;63749;49.186;9.222;2023-05-07T04:18:20;8.38;;;6.07;;
75169;SDS011;63749;49.186;9.222;2023-05-07T04:20:46;11.18;;;6.10;;
75169;SDS011;63749;49.186;9.222;2023-05-07T04:23:12;7.88;;;5.90;;
75169;SDS011;63749;49.186;9.222;2023-05-07T04:25:37;9.20;;;5.87;;
75169;SDS011;63749;49.186;9.222;2023-05-07T04:28:02;9.43;;;5.50;;
75169;SDS011;63749;49.186;9.222;2023-05-07T04:30:28;7.90;;;5.57;;
75169;SDS011;63749;49.186;9.222;2023-05-07T04:32:53;7.17;;;5.27;;
75169;SDS011;63749;49.186;9.222;2023-05-07T04:35:19;8.30;;;5.30;;
75169;SDS011;63749;49.186;9.222;2023-05-07T04:37:44;8.05;;;5.18;;
75169;SDS011;63749;49.186;9.222;2023-05-07T04:40:09;12.27;;;6.03;;
75169;SDS011;63749;49.186;9.222;2023-05-07T04:42:35;7.43;;;5.40;;
75169;SDS011;63749;49.186;9.222;2023-05-07T04:45:01;8.80;;;5.20;;
75169;SDS011;63749;49.186;9.222;2023-05-07T04:47:27;9.47;;;5.50;;
75169;SDS011;63749;49.186;9.222;2023-05-07T04:49:52;9.40;;;5.20;;
75169;SDS011;63749;49.186;9.222;2023-05-07T04:52:17;7.90;;;5.43;;
75169;SDS011;63749;49.186;9.222;2023-05-07T04:54:43;6.90;;;5.03;;
75169;SDS011;63749;49.186;9.222;2023-05-07T04:57:08;7.70;;;5.30;;
75169;SDS011;63749;49.186;9.222;2023-05-07T04:59:33;6.63;;;5.40;;
75169;SDS011;63749;49.186;9.222;2023-05-07T05:01:59;9.90;;;5.17;;
75169;SDS011;63749;49.186;9.222;2023-05-07T05:04:24;7.10;;;5.10;;
75169;SDS011;63749;49.186;9.222;2023-05-07T05:06:49;7.47;;;5.00;;
75169;SDS011;63749;49.186;9.222;2023-05-07T05:09:15;8.53;;;5.07;;
75169;SDS011;63749;49.186;9.222;2023-05-07T05:11:41;8.15;;;4.90;;
75169;SDS011;63749;49.186;9.222;2023-05-07T05:14:06;7.50;;;4.93;;
75169;SDS011;63749;49.186;9.222;2023-05-07T05:16:31;7.73;;;4.80;;
75169;SDS011;63749;49.186;9.222;2023-05-07T05:18:57;7.20;;;4.63;;
75169;SDS011;63749;49.186;9.222;2023-05-07T05:21:22;7.43;;;4.60;;
75169;SDS011;63749;49.186;9.222;2023-05-07T05:23:47;7.70;;;4.90;;
75169;SDS011;63749;49.186;9.222;2023-05-07T05:26:13;6.77;;;4.70;;
75169;SDS011;63749;49.186;9.222;2023-05-07T05:28:38;7.70;;;4.40;;
75169;SDS011;63749;49.186;9.222;2023-05-07T05:31:04;6.07;;;4.70;;
75169;SDS011;63749;49.186;9.222;2023-05-07T05:33:30;8.85;;;5.07;;
75169;SDS011;63749;49.186;9.222;2023-05-07T05:35:55;7.93;;;4.50;;
75169;SDS011;63749;49.186;9.222;2023-05-07T05:38:20;6.63;;;4.77;;
75169;SDS011;63749;49.186;9.222;2023-05-07T05:40:46;6.27;;;4.20;;
75169;SDS011;63749;49.186;9.222;2023-05-07T05:43:11;6.72;;;4.70;;
75169;SDS011;63749;49.186;9.222;2023-05-07T05:45:37;6.93;;;4.60;;
75169;SDS011;63749;49.186;9.222;2023-05-07T05:48:02;5.17;;;4.40;;
75169;SDS011;63749;49.186;9.222;2023-05-07T05:50:28;7.00;;;5.07;;
75169;SDS011;63749;49.186;9.222;2023-05-07T05:52:53;5.80;;;4.77;;
75169;SDS011;63749;49.186;9.222;2023-05-07T05:55:18;10.00;;;4.83;;
75169;SDS011;63749;49.186;9.222;2023-05-07T05:57:44;6.63;;;4.80;;
75169;SDS011;63749;49.186;9.222;2023-05-07T06:00:10;5.93;;;4.70;;
75169;SDS011;63749;49.186;9.222;2023-05-07T06:02:36;6.00;;;4.53;;
75169;SDS011;63749;49.186;9.222;2023-05-07T06:05:01;7.73;;;4.50;;
75169;SDS011;63749;49.186;9.222;2023-05-07T06:07:27;6.97;;;4.70;;
75169;SDS011;63749;49.186;9.222;2023-05-07T06:09:53;6.03;;;4.57;;
75169;SDS011;63749;49.186;9.222;2023-05-07T06:12:18;7.50;;;4.43;;
75169;SDS011;63749;49.186;9.222;2023-05-07T06:14:43;7.47;;;4.50;;
75169;SDS011;63749;49.186;9.222;2023-05-07T06:17:09;7.95;;;4.60;;
75169;SDS011;63749;49.186;9.222;2023-05-07T06:19:34;9.50;;;4.70;;
75169;SDS011;63749;49.186;9.222;2023-05-07T06:22:00;7.33;;;4.47;;
75169;SDS011;63749;49.186;9.222;2023-05-07T06:24:26;6.30;;;4.63;;
75169;SDS011;63749;49.186;9.222;2023-05-07T06:26:52;6.10;;;4.50;;
75169;SDS011;63749;49.186;9.222;2023-05-07T06:29:17;6.50;;;4.10;;
75169;SDS011;63749;49.186;9.222;2023-05-07T06:31:43;5.97;;;4.43;;
75169;SDS011;63749;49.186;9.222;2023-05-07T06:34:08;6.65;;;4.50;;
75169;SDS011;63749;49.186;9.222;2023-05-07T06:36:34;5.60;;;4.07;;
75169;SDS011;63749;49.186;9.222;2023-05-07T06:39:00;6.25;;;4.68;;
75169;SDS011;63749;49.186;9.222;2023-05-07T06:41:25;6.00;;;4.10;;
75169;SDS011;63749;49.186;9.222;2023-05-07T06:43:50;6.73;;;3.97;;
75169;SDS011;63749;49.186;9.222;2023-05-07T06:46:16;5.60;;;3.97;;
75169;SDS011;63749;49.186;9.222;2023-05-07T06:48:41;6.63;;;4.30;;
75169;SDS011;63749;49.186;9.222;2023-05-07T06:51:06;7.13;;;4.10;;
75169;SDS011;63749;49.186;9.222;2023-05-07T06:53:32;6.87;;;4.03;;
75169;SDS011;63749;49.186;9.222;2023-05-07T06:55:57;8.73;;;3.83;;
75169;SDS011;63749;49.186;9.222;2023-05-07T06:58:23;6.50;;;4.00;;
75169;SDS011;63749;49.186;9.222;2023-05-07T07:00:48;5.50;;;3.90;;
75169;SDS011;63749;49.186;9.222;2023-05-07T07:03:13;6.40;;;3.80;;
75169;SDS011;63749;49.186;9.222;2023-05-07T07:05:42;6.83;;;4.00;;
75169;SDS011;63749;49.186;9.222;2023-05-07T07:08:07;5.18;;;4.05;;
75169;SDS011;63749;49.186;9.222;2023-05-07T07:10:33;4.93;;;3.93;;
75169;SDS011;63749;49.186;9.222;2023-05-07T07:12:58;7.23;;;3.97;;
75169;SDS011;63749;49.186;9.222;2023-05-07T07:15:23;5.07;;;3.80;;
75169;SDS011;63749;49.186;9.222;2023-05-07T07:17:50;4.90;;;4.28;;
75169;SDS011;63749;49.186;9.222;2023-05-07T07:20:16;6.60;;;3.75;;
75169;SDS011;63749;49.186;9.222;2023-05-07T07:22:41;5.90;;;4.03;;
75169;SDS011;63749;49.186;9.222;2023-05-07T07:25:07;5.57;;;4.00;;
75169;SDS011;63749;49.186;9.222;2023-05-07T07:27:32;6.38;;;4.28;;
75169;SDS011;63749;49.186;9.222;2023-05-07T07:29:58;4.93;;;4.07;;
75169;SDS011;63749;49.186;9.222;2023-05-07T07:32:25;7.10;;;4.10;;
75169;SDS011;63749;49.186;9.222;2023-05-07T07:34:51;7.37;;;3.90;;
75169;SDS011;63749;49.186;9.222;2023-05-07T07:37:16;8.00;;;4.20;;
75169;SDS011;63749;49.186;9.222;2023-05-07T07:39:41;5.82;;;3.83;;
75169;SDS011;63749;49.186;9.222;2023-05-07T07:42:07;5.60;;;4.20;;
75169;SDS011;63749;49.186;9.222;2023-05-07T07:44:32;6.63;;;3.80;;
75169;SDS011;63749;49.186;9.222;2023-05-07T07:46:57;5.63;;;3.80;;
75169;SDS011;63749;49.186;9.222;2023-05-07T07:49:23;6.50;;;4.10;;
75169;SDS011;63749;49.186;9.222;2023-05-07T07:51:48;5.37;;;3.87;;
75169;SDS011;63749;49.186;9.222;2023-05-07T07:54:13;5.50;;;3.80;;
75169;SDS011;63749;49.186;9.222;2023-05-07T07:56:39;4.97;;;4.10;;
75169;SDS011;63749;49.186;9.222;2023-05-07T07:59:04;6.00;;;4.30;;
75169;SDS011;63749;49.186;9.222;2023-05-07T08:01:30;5.93;;;4.03;;
75169;SDS011;63749;49.186;9.222;2023-05-07T08:03:55;8.45;;;4.07;;
75169;SDS011;63749;49.186;9.222;2023-05-07T08:06:22;6.30;;;4.15;;
75169;SDS011;63749;49.186;9.222;2023-05-07T08:08:48;5.03;;;4.03;;
75169;SDS011;63749;49.186;9.222;2023-05-07T08:11:13;5.20;;;4.00;;
75169;SDS011;63749;49.186;9.222;2023-05-07T08:13:39;4.95;;;3.92;;
75169;SDS011;63749;49.186;9.222;2023-05-07T08:16:04;7.00;;;4.30;;
75169;SDS011;63749;49.186;9.222;2023-05-07T08:18:30;6.50;;;3.93;;
75169;SDS011;63749;49.186;9.222;2023-05-07T08:20:55;5.47;;;3.95;;
75169;SDS011;63749;49.186;9.222;2023-05-07T08:23:21;6.67;;;3.93;;
75169;SDS011;63749;49.186;9.222;2023-05-07T08:25:47;8.73;;;4.17;;
75169;SDS011;63749;49.186;9.222;2023-05-07T08:28:13;6.15;;;4.20;;
75169;SDS011;63749;49.186;9.222;2023-05-07T08:30:38;8.60;;;4.27;;
75169;SDS011;63749;49.186;9.222;2023-05-07T08:33:03;5.30;;;3.80;;
75169;SDS011;63749;49.186;9.222;2023-05-07T08:35:28;5.70;;;4.00;;
75169;SDS011;63749;49.186;9.222;2023-05-07T08:37:54;5.97;;;4.10;;
75169;SDS011;63749;49.186;9.222;2023-05-07T08:40:20;6.00;;;3.90;;
75169;SDS011;63749;49.186;9.222;2023-05-07T08:42:51;6.22;;;4.15;;
75169;SDS011;63749;49.186;9.222;2023-05-07T08:45:17;6.78;;;3.88;;
75169;SDS011;63749;49.186;9.222;2023-05-07T08:47:44;5.75;;;3.72;;
75169;SDS011;63749;49.186;9.222;2023-05-07T08:50:12;6.50;;;4.07;;
75169;SDS011;63749;49.186;9.222;2023-05-07T08:52:39;4.43;;;3.90;;
75169;SDS011;63749;49.186;9.222;2023-05-07T08:55:05;5.07;;;3.80;;
75169;SDS011;63749;49.186;9.222;2023-05-07T08:57:32;5.95;;;4.00;;
75169;SDS011;63749;49.186;9.222;2023-05-07T08:59:57;5.13;;;3.70;;
75169;SDS011;63749;49.186;9.222;2023-05-07T09:02:22;6.53;;;4.00;;
75169;SDS011;63749;49.186;9.222;2023-05-07T09:04:48;5.27;;;3.70;;
75169;SDS011;63749;49.186;9.222;2023-05-07T09:07:13;7.23;;;4.27;;
75169;SDS011;63749;49.186;9.222;2023-05-07T09:09:39;4.77;;;3.90;;
75169;SDS011;63749;49.186;9.222;2023-05-07T09:12:04;5.70;;;3.70;;
75169;SDS011;63749;49.186;9.222;2023-05-07T09:14:30;7.22;;;3.95;;
75169;SDS011;63749;49.186;9.222;2023-05-07T09:16:56;6.27;;;4.00;;
75169;SDS011;63749;49.186;9.222;2023-05-07T09:19:25;6.18;;;3.80;;
75169;SDS011;63749;49.186;9.222;2023-05-07T09:22:00;5.53;;;4.28;;
75169;SDS011;63749;49.186;9.222;2023-05-07T09:24:27;6.38;;;3.70;;
75169;SDS011;63749;49.186;9.222;2023-05-07T09:26:57;6.53;;;3.50;;
75169;SDS011;63749;49.186;9.222;2023-05-07T09:29:22;5.03;;;3.83;;
75169;SDS011;63749;49.186;9.222;2023-05-07T09:31:48;6.73;;;3.67;;
75169;SDS011;63749;49.186;9.222;2023-05-07T09:34:13;4.63;;;3.33;;
75169;SDS011;63749;49.186;9.222;2023-05-07T09:36:38;5.97;;;3.90;;
75169;SDS011;63749;49.186;9.222;2023-05-07T09:39:04;4.97;;;4.00;;
75169;SDS011;63749;49.186;9.222;2023-05-07T09:41:30;6.57;;;3.50;;
75169;SDS011;63749;49.186;9.222;2023-05-07T09:43:57;7.45;;;3.30;;
75169;SDS011;63749;49.186;9.222;2023-05-07T09:46:29;5.95;;;3.60;;
75169;SDS011;63749;49.186;9.222;2023-05-07T09:48:58;4.28;;;3.50;;
75169;SDS011;63749;49.186;9.222;2023-05-07T09:51:34;4.13;;;3.50;;
75169;SDS011;63749;49.186;9.222;2023-05-07T09:54:06;5.45;;;3.28;;
75169;SDS011;63749;49.186;9.222;2023-05-07T09:56:32;5.80;;;4.15;;
75169;SDS011;63749;49.186;9.222;2023-05-07T09:58:59;4.55;;;3.50;;
75169;SDS011;63749;49.186;9.222;2023-05-07T10:01:25;5.93;;;3.10;;
75169;SDS011;63749;49.186;9.222;2023-05-07T10:03:52;4.90;;;3.00;;
75169;SDS011;63749;49.186;9.222;2023-05-07T10:06:17;6.40;;;3.28;;
75169;SDS011;63749;49.186;9.222;2023-05-07T10:08:45;4.10;;;3.22;;
75169;SDS011;63749;49.186;9.222;2023-05-07T10:11:10;3.97;;;2.70;;
75169;SDS011;63749;49.186;9.222;2023-05-07T10:13:36;5.35;;;3.30;;
75169;SDS011;63749;49.186;9.222;2023-05-07T10:16:03;4.15;;;2.90;;
75169;SDS011;63749;49.186;9.222;2023-05-07T10:18:32;3.97;;;2.80;;
75169;SDS011;63749;49.186;9.222;2023-05-07T10:21:02;3.70;;;2.90;;
75169;SDS011;63749;49.186;9.222;2023-05-07T10:23:33;3.70;;;2.58;;
75169;SDS011;63749;49.186;9.222;2023-05-07T10:25:59;3.53;;;2.70;;
75169;SDS011;63749;49.186;9.222;2023-05-07T10:28:28;3.67;;;2.70;;
75169;SDS011;63749;49.186;9.222;2023-05-07T10:31:01;3.00;;;2.58;;
75169;SDS011;63749;49.186;9.222;2023-05-07T10:33:39;3.30;;;2.70;;
75169;SDS011;63749;49.186;9.222;2023-05-07T10:36:06;3.80;;;2.63;;
75169;SDS011;63749;49.186;9.222;2023-05-07T10:38:32;4.20;;;2.90;;
75169;SDS011;63749;49.186;9.222;2023-05-07T10:40:58;4.23;;;2.67;;
75169;SDS011;63749;49.186;9.222;2023-05-07T10:43:23;4.15;;;3.05;;
75169;SDS011;63749;49.186;9.222;2023-05-07T10:49:13;3.53;;;2.92;;
75169;SDS011;63749;49.186;9.222;2023-05-07T10:51:32;5.47;;;2.83;;
75169;SDS011;63749;49.186;9.222;2023-05-07T10:56:36;4.05;;;2.53;;
75169;SDS011;63749;49.186;9.222;2023-05-07T11:04:31;4.72;;;2.50;;
75169;SDS011;63749;49.186;9.222;2023-05-07T11:15:02;2.78;;;2.40;;
75169;SDS011;63749;49.186;9.222;2023-05-07T11:17:29;3.28;;;2.20;;
75169;SDS011;63749;49.186;9.222;2023-05-07T11:19:57;3.50;;;2.40;;
75169;SDS011;63749;49.186;9.222;2023-05-07T11:25:01;4.00;;;2.63;;
75169;SDS011;63749;49.186;9.222;2023-05-07T11:27:27;4.53;;;2.40;;
75169;SDS011;63749;49.186;9.222;2023-05-07T11:29:52;4.43;;;2.40;;
75169;SDS011;63749;49.186;9.222;2023-05-07T11:32:24;3.70;;;2.40;;
75169;SDS011;63749;49.186;9.222;2023-05-07T11:34:57;3.45;;;2.40;;
75169;SDS011;63749;49.186;9.222;2023-05-07T11:37:24;3.50;;;2.40;;
75169;SDS011;63749;49.186;9.222;2023-05-07T11:39:51;3.58;;;2.60;;
75169;SDS011;63749;49.186;9.222;2023-05-07T11:42:32;3.67;;;2.40;;
75169;SDS011;63749;49.186;9.222;2023-05-07T11:45:02;3.23;;;2.40;;
75169;SDS011;63749;49.186;9.222;2023-05-07T11:47:31;2.60;;;2.40;;
75169;SDS011;63749;49.186;9.222;2023-05-07T11:50:02;3.33;;;2.40;;
75169;SDS011;63749;49.186;9.222;2023-05-07T11:52:28;2.63;;;2.20;;
75169;SDS011;63749;49.186;9.222;2023-05-07T11:54:57;3.37;;;2.60;;
75169;SDS011;63749;49.186;9.222;2023-05-07T11:57:24;4.63;;;2.40;;
75169;SDS011;63749;49.186;9.222;2023-05-07T11:59:57;2.90;;;2.50;;
75169;SDS011;63749;49.186;9.222;2023-05-07T12:02:24;2.57;;;2.23;;
75169;SDS011;63749;49.186;9.222;2023-05-07T12:04:50;4.07;;;2.40;;
75169;SDS011;63749;49.186;9.222;2023-05-07T12:07:17;3.40;;;2.40;;
75169;SDS011;63749;49.186;9.222;2023-05-07T12:09:43;3.70;;;2.30;;
75169;SDS011;63749;49.186;9.222;2023-05-07T12:12:09;5.00;;;2.20;;
75169;SDS011;63749;49.186;9.222;2023-05-07T12:14:41;3.07;;;2.40;;
75169;SDS011;63749;49.186;9.222;2023-05-07T12:17:08;3.15;;;2.50;;
75169;SDS011;63749;49.186;9.222;2023-05-07T12:19:38;4.00;;;2.47;;
75169;SDS011;63749;49.186;9.222;2023-05-07T12:22:05;3.83;;;2.30;;
75169;SDS011;63749;49.186;9.222;2023-05-07T12:27:28;6.78;;;2.40;;
75169;SDS011;63749;49.186;9.222;2023-05-07T12:29:53;2.60;;;2.30;;
75169;SDS011;63749;49.186;9.222;2023-05-07T12:32:19;4.67;;;2.40;;
75169;SDS011;63749;49.186;9.222;2023-05-07T12:34:46;2.93;;;2.63;;
75169;SDS011;63749;49.186;9.222;2023-05-07T12:37:14;4.50;;;2.72;;
75169;SDS011;63749;49.186;9.222;2023-05-07T12:40:02;4.85;;;2.88;;
75169;SDS011;63749;49.186;9.222;2023-05-07T12:42:38;3.73;;;2.97;;
75169;SDS011;63749;49.186;9.222;2023-05-07T12:45:11;3.72;;;2.78;;
75169;SDS011;63749;49.186;9.222;2023-05-07T12:47:37;4.55;;;3.17;;
75169;SDS011;63749;49.186;9.222;2023-05-07T12:50:04;3.30;;;3.00;;
75169;SDS011;63749;49.186;9.222;2023-05-07T12:52:31;3.90;;;3.05;;
75169;SDS011;63749;49.186;9.222;2023-05-07T12:54:56;3.90;;;3.00;;
75169;SDS011;63749;49.186;9.222;2023-05-07T12:57:29;3.30;;;2.73;;
75169;SDS011;63749;49.186;9.222;2023-05-07T12:59:57;4.68;;;2.50;;
75169;SDS011;63749;49.186;9.222;2023-05-07T13:02:31;2.40;;;2.20;;
75169;SDS011;63749;49.186;9.222;2023-05-07T13:04:57;3.08;;;2.30;;
75169;SDS011;63749;49.186;9.222;2023-05-07T13:07:24;4.73;;;2.30;;
75169;SDS011;63749;49.186;9.222;2023-05-07T13:09:50;3.85;;;2.30;;
75169;SDS011;63749;49.186;9.222;2023-05-07T13:12:15;4.70;;;2.20;;
75169;SDS011;63749;49.186;9.222;2023-05-07T13:14:41;2.78;;;2.30;;
75169;SDS011;63749;49.186;9.222;2023-05-07T13:17:06;2.40;;;2.20;;
75169;SDS011;63749;49.186;9.222;2023-05-07T13:19:31;3.60;;;2.73;;
75169;SDS011;63749;49.186;9.222;2023-05-07T13:21:57;5.20;;;2.43;;
75169;SDS011;63749;49.186;9.222;2023-05-07T13:24:22;3.73;;;2.80;;
75169;SDS011;63749;49.186;9.222;2023-05-07T13:26:47;3.03;;;2.43;;
75169;SDS011;63749;49.186;9.222;2023-05-07T13:29:12;3.00;;;2.20;;
75169;SDS011;63749;49.186;9.222;2023-05-07T13:31:38;4.47;;;2.40;;
75169;SDS011;63749;49.186;9.222;2023-05-07T13:34:07;6.40;;;2.60;;
75169;SDS011;63749;49.186;9.222;2023-05-07T13:36:33;3.53;;;2.20;;
75169;SDS011;63749;49.186;9.222;2023-05-07T13:39:02;2.40;;;2.20;;
75169;SDS011;63749;49.186;9.222;2023-05-07T13:41:31;4.15;;;2.40;;
75169;SDS011;63749;49.186;9.222;2023-05-07T13:43:56;8.13;;;2.57;;
75169;SDS011;63749;49.186;9.222;2023-05-07T13:46:22;2.63;;;2.33;;
75169;SDS011;63749;49.186;9.222;2023-05-07T13:48:47;3.20;;;2.50;;
75169;SDS011;63749;49.186;9.222;2023-05-07T13:51:12;2.70;;;2.27;;
75169;SDS011;63749;49.186;9.222;2023-05-07T13:53:38;2.60;;;2.00;;
75169;SDS011;63749;49.186;9.222;2023-05-07T13:56:03;2.87;;;2.03;;
75169;SDS011;63749;49.186;9.222;2023-05-07T13:58:29;3.40;;;2.13;;
75169;SDS011;63749;49.186;9.222;2023-05-07T14:00:55;2.40;;;2.20;;
75169;SDS011;63749;49.186;9.222;2023-05-07T14:03:20;2.75;;;2.20;;
75169;SDS011;63749;49.186;9.222;2023-05-07T14:05:46;2.60;;;2.27;;
75169;SDS011;63749;49.186;9.222;2023-05-07T14:08:11;3.90;;;2.30;;
75169;SDS011;63749;49.186;9.222;2023-05-07T14:10:38;3.85;;;2.28;;
75169;SDS011;63749;49.186;9.222;2023-05-07T14:13:04;4.13;;;2.50;;
75169;SDS011;63749;49.186;9.222;2023-05-07T14:15:30;4.77;;;2.30;;
75169;SDS011;63749;49.186;9.222;2023-05-07T14:17:57;4.20;;;2.50;;
75169;SDS011;63749;49.186;9.222;2023-05-07T14:20:23;8.43;;;6.67;;
75169;SDS011;63749;49.186;9.222;2023-05-07T14:22:49;6.85;;;4.32;;
75169;SDS011;63749;49.186;9.222;2023-05-07T14:25:15;6.97;;;4.30;;
75169;SDS011;63749;49.186;9.222;2023-05-07T14:27:40;5.57;;;3.00;;
75169;SDS011;63749;49.186;9.222;2023-05-07T14:30:06;4.83;;;3.20;;
75169;SDS011;63749;49.186;9.222;2023-05-07T14:32:32;7.07;;;3.53;;
75169;SDS011;63749;49.186;9.222;2023-05-07T14:34:58;8.18;;;3.38;;
75169;SDS011;63749;49.186;9.222;2023-05-07T14:37:23;7.13;;;3.73;;
75169;SDS011;63749;49.186;9.222;2023-05-07T14:39:49;5.53;;;3.40;;
75169;SDS011;63749;49.186;9.222;2023-05-07T14:42:14;7.53;;;3.60;;
75169;SDS011;63749;49.186;9.222;2023-05-07T14:44:40;7.55;;;3.53;;
75169;SDS011;63749;49.186;9.222;2023-05-07T14:47:09;7.83;;;3.20;;
75169;SDS011;63749;49.186;9.222;2023-05-07T14:49:35;5.85;;;3.30;;
75169;SDS011;63749;49.186;9.222;2023-05-07T14:52:00;9.77;;;3.80;;
75169;SDS011;63749;49.186;9.222;2023-05-07T14:54:26;5.93;;;3.80;;
75169;SDS011;63749;49.186;9.222;2023-05-07T14:56:51;7.28;;;4.10;;
75169;SDS011;63749;49.186;9.222;2023-05-07T14:59:17;7.67;;;3.70;;
75169;SDS011;63749;49.186;9.222;2023-05-07T15:01:46;8.10;;;3.75;;
75169;SDS011;63749;49.186;9.222;2023-05-07T15:04:11;5.80;;;3.60;;
75169;SDS011;63749;49.186;9.222;2023-05-07T15:06:37;6.73;;;3.27;;
75169;SDS011;63749;49.186;9.222;2023-05-07T15:09:02;5.60;;;3.33;;